Du har inga inställningar för hoppväder.nu

Hoppväder.nu

Senast uppdaterat 18:27

UTC-tid

2024-05-30 kl. 16:27


Sol och måne

Solen går upp 3:11 och går ner 23:25 (beräknade cirkatider)
Nästa fullmåne blir om 23 dagar (2024-06-22)

METAR

ESNN (Sundsvall)
(7 minuter sedan)
ESNN 301620Z 16009KT CAVOK 20/11 Q1012=



ESNK (Kramfors)
(7 minuter sedan)
ESNK 301620Z AUTO 18011KT 9999 NCD 22/10 Q1011=



ESNO (Örnsköldsvik)
(7 minuter sedan)
ESNO 301620Z 14010KT CAVOK 21/09 Q1012=



ESNY (Söderhamn)
ESNY NIL=



ESNZ (Östersund)
(7 minuter sedan)
ESNZ 301620Z 09005KT CAVOK 21/04 Q1011=



TAF

ESNN (Sundsvall)
(117 minuter sedan)
ESNN 301430Z 3015/3024 16010KT CAVOK BECMG 3019/3021 09003KT=



ESNK (Kramfors)
(117 minuter sedan)
ESNK 301430Z 3015/3018 16008KT CAVOK=



ESNO (Örnsköldsvik)
(117 minuter sedan)
ESNO 301430Z 3015/3022 16010KT CAVOK=



ESNY (Söderhamn)
ESNY



ESNZ (Östersund)
(117 minuter sedan)
ESNZ 301430Z 3015/3022 14006KT CAVOK=





Kodnycklar till TAF och METAR






LHP

(Sundsvall är område se42d i Delområde 4)

Översikt

ÖVERSIKT FÖR OMRÅDE se4 UTFÄRDAD 301146

GÄLLANDE DEN 30 MAJ 2024 MELLAN 12 OCH 20 UTC


Väderöversikt
En högtrycksrygg täcker norra Sverige. I hela fjällkedjan varierande mängd stratocumulusmoln och en svag-måttlig sydlig vind.

Sikt under 5 kilometer eller molnbas under 1000 fot
Väntas inte förekomma under perioden
Måttlig eller svår isbildning
Väntas inte förekomma under perioden
Måttlig eller svår turbulens
Väntas inte förekomma under perioden


Delområde 4

PROGNOS FÖR OMRÅDE se42 UTFÄRDAD 301146
GÄLLANDE DEN 30 MAJ 2024 MELLAN 12 OCH 20 UTC


Måttlig eller svår turbulens
12-20UTC: I hela området: Väntas inte förekomma under perioden

Måttlig eller svår isbildning
12-20UTC: I hela området: Väntas inte förekomma under perioden

Sikt/Väder/Moln
12-20UTC: I hela området: Sikt >8km. Molnbas >2000ft.

Molnöversida
12-14UTC: Område se42e: Molnöversida FL105.

12-16UTC: Område se42d: Molnöversida FL105.

12-20UTC: Område se42a, se42b, se42c: Ingen prognos

14-20UTC: Område se42e: Ingen prognos

16-20UTC: Område se42d: Ingen prognos


CB/TCU Moln
12-20UTC: I hela området: Väntas inte förekomma under perioden

Nollgradersisoterm
12-14UTC: I hela området: Noll grader FL080 - FL100.
14-20UTC: I hela området: Noll grader FL085 - FL100.

Vind vid marken
12-14UTC: Område se42a: O-SO/2-7 knop, byar upp till 16 knop.
Område se42b: O/2-10 knop, byar upp till 13 knop.
Område se42c: O-SO/3-10 knop.
Område se42d: O-SO/3-9 knop, byar upp till 20 knop.
Område se42e: O-SO/3-8 knop, byar upp till 19 knop.

14-16UTC: Område se42a: SO/2-6 knop, byar upp till 13 knop.
Område se42b: O/2-9 knop, byar upp till 13 knop.
Område se42c: O-SO/3-12 knop, byar upp till 14 knop.
Område se42d: SO/3-7 knop, byar upp till 18 knop.
Område se42e: O-SO/3-7 knop, byar upp till 17 knop.

16-18UTC: Område se42a: SO/1-6 knop.
Område se42b: O/1-11 knop, byar upp till 14 knop.
Område se42c: O/2-12 knop, byar upp till 15 knop.
Område se42d: SO/2-8 knop, byar upp till 14 knop.
Område se42e: O-SO/2-6 knop, byar upp till 16 knop.

18-20UTC: Område se42a: SO/0-8 knop.
Område se42b: O/0-9 knop, byar upp till 13 knop.
Område se42c: O/4-11 knop.
Område se42d: SO/0-7 knop, byar upp till 13 knop.
Område se42e: O-SO/1-5 knop, byar upp till 13 knop.


Genomsnittlig vind och temperatur för området

2000ft:
12-14UTC: 150/9kt +14.
14-16UTC: 160/8kt +14.
16-18UTC: 160/7kt +15.
18-20UTC: 150/7kt +15.

FL050:
12-14UTC: 170/12kt +7.
14-16UTC: 190/12kt +8.
16-18UTC: 200/9kt +8.
18-20UTC: 180/6kt +8.

FL100:
12-14UTC: 170/21kt -2.
14-16UTC: 170/18kt -2.
16-18UTC: 180/16kt -1.
18-20UTC: 170/14kt -2.

Lägsta QNH
12-20UTC: I hela området: 1011 hPa

OBS! endast utbredd måttlig eller svår isbildning och turbulens prognostiseras i LLF.
Avsaknad av isbildning och turbulens i prognosen utesluter inte förekomst av lätt isbildning och turbulens.
För indikation på lätt isbildning, var vänlig kontrollera om prognosen för molntopp ligger högre än nollgradersisotermen.
Förekomst av TCU eller CB medför alltid en risk för måttlig eller svår isbildning och turbulens även om det inte framgår explicit av prognosen.






Spotting

Hur fungerar spotthjälpen och Vindkartan?

Markvind är ca 1-4 m/s med byar på 7 m/s.
Vind på 600 m ca 4 m/s.
Vind på 1500 m ca 5 m/s.
Vind på 3000 m ca 8 m/s.
Feppen flyger ca 28 m/s över marken på finalen.
Du driver ca 370 m bakåt i frifall. (494 m)
Lämplig spot är 3 sekunder eller 83 m efter gropen.
(7 s eller 194 m)
För små grupper eller ensamhoppare bör man vänta 5-8 sekunder mellan grupperna.
För större grupper bör man vänta 11-13 sekunder mellan grupperna.


Vindkartan

Senast uppdaterad 18:27




All data kommer från LFV.se